Austin, TX (78764)

1:08 AM CDT on May 28, 2015 (GMT -0500)
Cutting Edge Lawn Care | | Change Station
CLOSE
Current Station
Personal Weather Station
Location: Austin, TX
Elevation: 781 ft
Nearby Weather Stations

Elev 781 ft 30.43 °N, 97.68 °W | Updated 7 minutes ago

Overcast
Overcast
72.8 °F
Feels Like 74 °F
N
4.7
Wind Variable Wind from SSE

Today
High -- | Low -- °F
--% Chance of Precip.
Yesterday
High -- | Low -- °F
Precip. -- in
6:30 AM 8:25 PM
Waxing Gibbous, 73% visible
Pressure 30.06 in
Visibility 10.0 miles
Clouds Few 1200 ft
Overcast 1900 ft
Heat Index 74 °F
Dew Point 64 °F
Humidity 75%
Rainfall 0.00 in
Snow Depth Not available.
UV 0 out of 12
Pollen 4.10 out of 12
Air Quality Not available.
Flu Activity Sporadic
METAR KEDC 280555Z AUTO 18004KT 10SM FEW012 OVC019 23/23 A3006 RMK AO2

More Conditions Fewer Conditions

Pressure 30.06 in
Visibility 10.0 miles
Clouds Few 1200 ft
Overcast 1900 ft
Heat Index 74 °F
Dew Point 64 °F
Humidity 75%
Rainfall 0.00 in
Snow Depth Not available.
UV 0 out of 12
Pollen 4.10 out of 12
Air Quality Not available.
Flu Activity Sporadic
METAR KEDC 280555Z AUTO 18004KT 10SM FEW012 OVC019 23/23 A3006 RMK AO2

More Conditions Fewer Conditions

10-Day Weather Forecast

Almanac

Astronomy

May. 28, 2015 Rise Set
Actual Time
Civil Twilight
Nautical Twilight
Astronomical Twilight
Moon
Length of Visible Light
Length of Day
Tomorrow will be .
, % of the Moon is Illuminated

Today's Extremes

State Highs State Lows

Community

WunderPhotos

Upload Photos

1,824,931 photos uploaded!

WunderBlogs® & News

Nearby

Air Quality

  Air Quality AQ Index Pollutant
Not available.

Snow Depth

Station Depth Elevation

Earthquake Activity

City Distance Mag. Time & Date
Minimum magnitude displayed is 2.5.

Coastal Water Temperatures

Place Temperature

Stations

Nearby Weather Stations

Station Location Temp. Windchill Dew Point Humidity Wind Precip. Elev Updated Type